sensor_id;sensor_type;location;lat;lon;timestamp;pressure;altitude;pressure_sealevel;temperature;humidity
68301;BME280;55146;47.468;18.806;2023-04-22T00:01:21;99834.56;;;9.89;77.46
68301;BME280;55146;47.468;18.806;2023-04-22T00:03:49;99833.47;;;9.90;77.63
68301;BME280;55146;47.468;18.806;2023-04-22T00:06:14;99835.66;;;9.88;77.28
68301;BME280;55146;47.468;18.806;2023-04-22T00:08:39;99841.47;;;9.86;77.46
68301;BME280;55146;47.468;18.806;2023-04-22T00:11:05;99843.91;;;9.83;77.81
68301;BME280;55146;47.468;18.806;2023-04-22T00:13:30;99834.31;;;9.80;78.12
68301;BME280;55146;47.468;18.806;2023-04-22T00:15:56;99843.09;;;9.82;78.34
68301;BME280;55146;47.468;18.806;2023-04-22T00:18:21;99840.91;;;9.79;78.15
68301;BME280;55146;47.468;18.806;2023-04-22T00:20:47;99844.75;;;9.78;78.37
68301;BME280;55146;47.468;18.806;2023-04-22T00:23:12;99847.75;;;9.82;78.66
68301;BME280;55146;47.468;18.806;2023-04-22T00:25:56;99848.31;;;9.84;79.17
68301;BME280;55146;47.468;18.806;2023-04-22T00:28:21;99842.28;;;9.87;79.04
68301;BME280;55146;47.468;18.806;2023-04-22T00:30:47;99846.41;;;9.89;78.97
68301;BME280;55146;47.468;18.806;2023-04-22T00:33:12;99843.09;;;9.92;79.17
68301;BME280;55146;47.468;18.806;2023-04-22T00:35:37;99838.69;;;9.96;79.20
68301;BME280;55146;47.468;18.806;2023-04-22T00:38:03;99839.53;;;9.97;79.06
68301;BME280;55146;47.468;18.806;2023-04-22T00:40:28;99844.19;;;10.01;79.71
68301;BME280;55146;47.468;18.806;2023-04-22T00:42:54;99847.22;;;10.05;80.10
68301;BME280;55146;47.468;18.806;2023-04-22T00:45:20;99838.66;;;10.06;80.01
68301;BME280;55146;47.468;18.806;2023-04-22T00:47:46;99837.88;;;10.06;79.72
68301;BME280;55146;47.468;18.806;2023-04-22T00:50:12;99842.81;;;10.04;79.38
68301;BME280;55146;47.468;18.806;2023-04-22T00:52:37;99844.47;;;10.05;79.44
68301;BME280;55146;47.468;18.806;2023-04-22T00:55:03;99843.34;;;10.01;79.29
68301;BME280;55146;47.468;18.806;2023-04-22T00:57:29;99844.44;;;10.00;79.14
68301;BME280;55146;47.468;18.806;2023-04-22T00:59:58;99849.16;;;9.99;79.10
68301;BME280;55146;47.468;18.806;2023-04-22T01:02:24;99841.44;;;9.96;79.18
68301;BME280;55146;47.468;18.806;2023-04-22T01:04:50;99845.84;;;9.97;79.54
68301;BME280;55146;47.468;18.806;2023-04-22T01:07:18;99832.94;;;9.98;79.56
68301;BME280;55146;47.468;18.806;2023-04-22T01:09:43;99843.91;;;9.98;79.75
68301;BME280;55146;47.468;18.806;2023-04-22T01:12:09;99851.59;;;10.01;80.17
68301;BME280;55146;47.468;18.806;2023-04-22T01:14:35;99843.66;;;9.99;80.29
68301;BME280;55146;47.468;18.806;2023-04-22T01:17:01;99848.59;;;9.97;80.29
68301;BME280;55146;47.468;18.806;2023-04-22T01:19:27;99840.91;;;9.99;80.21
68301;BME280;55146;47.468;18.806;2023-04-22T01:21:53;99848.59;;;10.02;80.46
68301;BME280;55146;47.468;18.806;2023-04-22T01:24:19;99843.09;;;10.02;80.65
68301;BME280;55146;47.468;18.806;2023-04-22T01:26:46;99849.13;;;10.04;80.91
68301;BME280;55146;47.468;18.806;2023-04-22T01:29:12;99852.97;;;10.03;81.06
68301;BME280;55146;47.468;18.806;2023-04-22T01:31:38;99842.81;;;10.04;81.12
68301;BME280;55146;47.468;18.806;2023-04-22T01:34:04;99852.97;;;10.08;81.23
68301;BME280;55146;47.468;18.806;2023-04-22T01:36:29;99846.66;;;10.08;80.98
68301;BME280;55146;47.468;18.806;2023-04-22T01:38:57;99845.81;;;10.07;80.99
68301;BME280;55146;47.468;18.806;2023-04-22T01:41:23;99854.63;;;10.04;80.63
68301;BME280;55146;47.468;18.806;2023-04-22T01:43:50;99857.38;;;10.04;80.85
68301;BME280;55146;47.468;18.806;2023-04-22T01:46:16;99857.38;;;10.04;80.80
68301;BME280;55146;47.468;18.806;2023-04-22T01:48:42;99858.22;;;10.05;80.94
68301;BME280;55146;47.468;18.806;2023-04-22T01:51:07;99852.16;;;10.03;80.99
68301;BME280;55146;47.468;18.806;2023-04-22T01:53:34;99859.56;;;10.02;80.53
68301;BME280;55146;47.468;18.806;2023-04-22T01:56:00;99851.06;;;10.04;80.88
68301;BME280;55146;47.468;18.806;2023-04-22T01:58:29;99856.56;;;10.04;81.16
68301;BME280;55146;47.468;18.806;2023-04-22T02:00:55;99852.97;;;10.03;81.40
68301;BME280;55146;47.468;18.806;2023-04-22T02:03:20;99845.84;;;10.02;81.41
68301;BME280;55146;47.468;18.806;2023-04-22T02:05:45;99853.81;;;10.04;81.43
68301;BME280;55146;47.468;18.806;2023-04-22T02:08:11;99854.63;;;10.04;81.45
68301;BME280;55146;47.468;18.806;2023-04-22T02:10:36;99842.25;;;10.02;81.10
68301;BME280;55146;47.468;18.806;2023-04-22T02:13:01;99849.41;;;10.03;81.08
68301;BME280;55146;47.468;18.806;2023-04-22T02:15:27;99838.94;;;10.00;81.01
68301;BME280;55146;47.468;18.806;2023-04-22T02:17:52;99848.03;;;10.00;81.24
68301;BME280;55146;47.468;18.806;2023-04-22T02:20:17;99837.34;;;9.99;81.21
68301;BME280;55146;47.468;18.806;2023-04-22T02:22:43;99838.44;;;9.98;81.22
68301;BME280;55146;47.468;18.806;2023-04-22T02:25:09;99844.19;;;10.01;81.53
68301;BME280;55146;47.468;18.806;2023-04-22T02:27:36;99835.94;;;10.01;81.38
68301;BME280;55146;47.468;18.806;2023-04-22T02:30:02;99840.91;;;9.99;81.40
68301;BME280;55146;47.468;18.806;2023-04-22T02:32:28;99838.94;;;10.00;81.19
68301;BME280;55146;47.468;18.806;2023-04-22T02:34:53;99847.50;;;9.98;81.55
68301;BME280;55146;47.468;18.806;2023-04-22T02:37:18;99840.63;;;9.96;81.46
68301;BME280;55146;47.468;18.806;2023-04-22T02:39:44;99838.97;;;9.95;81.44
68301;BME280;55146;47.468;18.806;2023-04-22T02:42:10;99837.31;;;9.94;81.67
68301;BME280;55146;47.468;18.806;2023-04-22T02:44:35;99834.56;;;9.94;81.56
68301;BME280;55146;47.468;18.806;2023-04-22T02:47:00;99829.91;;;9.94;81.60
68301;BME280;55146;47.468;18.806;2023-04-22T02:49:27;99835.69;;;9.93;81.39
68301;BME280;55146;47.468;18.806;2023-04-22T02:51:53;99834.88;;;9.92;81.37
68301;BME280;55146;47.468;18.806;2023-04-22T02:54:18;99828.53;;;9.92;81.38
68301;BME280;55146;47.468;18.806;2023-04-22T02:56:43;99838.44;;;9.93;81.25
68301;BME280;55146;47.468;18.806;2023-04-22T02:59:10;99831.56;;;9.90;81.27
68301;BME280;55146;47.468;18.806;2023-04-22T03:01:35;99835.41;;;9.89;81.35
68301;BME280;55146;47.468;18.806;2023-04-22T03:04:01;99835.16;;;9.86;81.35
68301;BME280;55146;47.468;18.806;2023-04-22T03:06:26;99839.81;;;9.80;81.11
68301;BME280;55146;47.468;18.806;2023-04-22T03:08:51;99837.88;;;9.75;81.36
68301;BME280;55146;47.468;18.806;2023-04-22T03:11:17;99836.25;;;9.74;81.56
68301;BME280;55146;47.468;18.806;2023-04-22T03:13:42;99837.62;;;9.72;81.47
68301;BME280;55146;47.468;18.806;2023-04-22T03:16:08;99840.91;;;9.69;81.45
68301;BME280;55146;47.468;18.806;2023-04-22T03:18:33;99843.94;;;9.67;81.41
68301;BME280;55146;47.468;18.806;2023-04-22T03:20:59;99844.47;;;9.64;81.38
68301;BME280;55146;47.468;18.806;2023-04-22T03:23:25;99852.19;;;9.62;81.40
68301;BME280;55146;47.468;18.806;2023-04-22T03:25:50;99853.00;;;9.53;80.87
68301;BME280;55146;47.468;18.806;2023-04-22T03:28:16;99851.59;;;9.45;80.65
68301;BME280;55146;47.468;18.806;2023-04-22T03:30:41;99856.00;;;9.41;80.89
68301;BME280;55146;47.468;18.806;2023-04-22T03:33:06;99860.38;;;9.32;80.90
68301;BME280;55146;47.468;18.806;2023-04-22T03:35:32;99860.09;;;9.28;80.97
68301;BME280;55146;47.468;18.806;2023-04-22T03:37:57;99861.19;;;9.27;80.58
68301;BME280;55146;47.468;18.806;2023-04-22T03:40:41;99856.78;;;9.26;80.48
68301;BME280;55146;47.468;18.806;2023-04-22T03:43:06;99861.75;;;9.24;80.57
68301;BME280;55146;47.468;18.806;2023-04-22T03:45:32;99861.75;;;9.24;80.67
68301;BME280;55146;47.468;18.806;2023-04-22T03:47:57;99857.59;;;9.17;81.03
68301;BME280;55146;47.468;18.806;2023-04-22T03:50:23;99865.25;;;9.10;80.87
68301;BME280;55146;47.468;18.806;2023-04-22T03:52:48;99856.19;;;9.04;81.11
68301;BME280;55146;47.468;18.806;2023-04-22T03:55:14;99863.03;;;9.02;80.89
68301;BME280;55146;47.468;18.806;2023-04-22T03:57:39;99867.69;;;8.96;80.85
68301;BME280;55146;47.468;18.806;2023-04-22T04:00:05;99864.66;;;8.92;80.96
68301;BME280;55146;47.468;18.806;2023-04-22T04:02:31;99861.91;;;8.87;80.82
68301;BME280;55146;47.468;18.806;2023-04-22T04:04:56;99866.28;;;8.83;81.05
68301;BME280;55146;47.468;18.806;2023-04-22T04:07:21;99863.25;;;8.80;81.21
68301;BME280;55146;47.468;18.806;2023-04-22T04:09:47;99866.50;;;8.77;81.24
68301;BME280;55146;47.468;18.806;2023-04-22T04:12:12;99864.91;;;8.76;81.57
68301;BME280;55146;47.468;18.806;2023-04-22T04:14:37;99871.19;;;8.76;81.66
68301;BME280;55146;47.468;18.806;2023-04-22T04:17:03;99872.00;;;8.77;81.51
68301;BME280;55146;47.468;18.806;2023-04-22T04:19:28;99869.56;;;8.75;81.52
68301;BME280;55146;47.468;18.806;2023-04-22T04:21:54;99867.62;;;8.76;81.84
68301;BME280;55146;47.468;18.806;2023-04-22T04:24:19;99872.81;;;8.72;81.70
68301;BME280;55146;47.468;18.806;2023-04-22T04:26:45;99875.31;;;8.79;82.02
68301;BME280;55146;47.468;18.806;2023-04-22T04:29:10;99878.06;;;8.79;82.14
68301;BME280;55146;47.468;18.806;2023-04-22T04:31:37;99883.28;;;8.80;82.51
68301;BME280;55146;47.468;18.806;2023-04-22T04:34:03;99883.28;;;8.80;82.45
68301;BME280;55146;47.468;18.806;2023-04-22T04:36:29;99879.44;;;8.81;82.36
68301;BME280;55146;47.468;18.806;2023-04-22T04:38:56;99882.22;;;8.86;82.76
68301;BME280;55146;47.468;18.806;2023-04-22T04:41:22;99889.03;;;8.84;82.85
68301;BME280;55146;47.468;18.806;2023-04-22T04:43:47;99884.94;;;8.86;82.95
68301;BME280;55146;47.468;18.806;2023-04-22T04:46:14;99885.50;;;8.88;82.42
68301;BME280;55146;47.468;18.806;2023-04-22T04:48:41;99884.41;;;8.89;82.57
68301;BME280;55146;47.468;18.806;2023-04-22T04:51:06;99888.25;;;8.88;82.54
68301;BME280;55146;47.468;18.806;2023-04-22T04:53:32;99889.06;;;8.89;82.92
68301;BME280;55146;47.468;18.806;2023-04-22T04:55:57;99889.34;;;8.92;82.99
68301;BME280;55146;47.468;18.806;2023-04-22T04:58:22;99894.03;;;8.97;83.00
68301;BME280;55146;47.468;18.806;2023-04-22T05:00:48;99897.62;;;9.03;83.32
68301;BME280;55146;47.468;18.806;2023-04-22T05:03:13;99891.03;;;9.04;83.51
68301;BME280;55146;47.468;18.806;2023-04-22T05:05:38;99895.19;;;9.06;83.35
68301;BME280;55146;47.468;18.806;2023-04-22T05:08:04;99898.50;;;9.13;83.78
68301;BME280;55146;47.468;18.806;2023-04-22T05:10:29;99902.91;;;9.19;84.41
68301;BME280;55146;47.468;18.806;2023-04-22T05:12:54;99912.25;;;9.23;84.76
68301;BME280;55146;47.468;18.806;2023-04-22T05:15:20;99907.03;;;9.27;84.38
68301;BME280;55146;47.468;18.806;2023-04-22T05:17:45;99912.81;;;9.36;84.97
68301;BME280;55146;47.468;18.806;2023-04-22T05:20:11;99912.28;;;9.44;85.77
68301;BME280;55146;47.468;18.806;2023-04-22T05:22:36;99899.41;;;9.49;85.50
68301;BME280;55146;47.468;18.806;2023-04-22T05:25:03;99906.53;;;9.55;85.22
68301;BME280;55146;47.468;18.806;2023-04-22T05:27:29;99912.31;;;9.59;85.12
68301;BME280;55146;47.468;18.806;2023-04-22T05:29:55;99901.31;;;9.64;85.08
68301;BME280;55146;47.468;18.806;2023-04-22T05:32:20;99905.47;;;9.66;85.27
68301;BME280;55146;47.468;18.806;2023-04-22T05:34:46;99907.94;;;9.73;85.19
68301;BME280;55146;47.468;18.806;2023-04-22T05:37:11;99909.03;;;9.82;85.17
68301;BME280;55146;47.468;18.806;2023-04-22T05:39:36;99909.31;;;9.86;85.37
68301;BME280;55146;47.468;18.806;2023-04-22T05:42:02;99912.31;;;9.89;85.26
68301;BME280;55146;47.468;18.806;2023-04-22T05:44:27;99907.97;;;9.93;85.80
68301;BME280;55146;47.468;18.806;2023-04-22T05:46:52;99913.72;;;10.02;85.64
68301;BME280;55146;47.468;18.806;2023-04-22T05:49:18;99916.75;;;10.10;86.67
68301;BME280;55146;47.468;18.806;2023-04-22T05:51:44;99912.91;;;10.22;86.57
68301;BME280;55146;47.468;18.806;2023-04-22T05:54:09;99915.94;;;10.30;85.86
68301;BME280;55146;47.468;18.806;2023-04-22T05:56:34;99912.88;;;10.42;85.70
68301;BME280;55146;47.468;18.806;2023-04-22T05:59:00;99915.59;;;10.52;85.00
68301;BME280;55146;47.468;18.806;2023-04-22T06:01:25;99916.69;;;10.61;85.34
68301;BME280;55146;47.468;18.806;2023-04-22T06:03:51;99912.53;;;10.69;85.15
68301;BME280;55146;47.468;18.806;2023-04-22T06:06:16;99914.97;;;10.80;84.12
68301;BME280;55146;47.468;18.806;2023-04-22T06:08:42;99920.44;;;10.95;83.68
68301;BME280;55146;47.468;18.806;2023-04-22T06:11:07;99911.56;;;11.09;83.23
68301;BME280;55146;47.468;18.806;2023-04-22T06:13:32;99916.19;;;11.18;81.95
68301;BME280;55146;47.468;18.806;2023-04-22T06:15:58;99921.09;;;11.31;82.41
68301;BME280;55146;47.468;18.806;2023-04-22T06:18:23;99921.25;;;11.50;81.65
68301;BME280;55146;47.468;18.806;2023-04-22T06:20:48;99918.59;;;11.84;80.70
68301;BME280;55146;47.468;18.806;2023-04-22T06:23:14;99925.34;;;12.31;78.55
68301;BME280;55146;47.468;18.806;2023-04-22T06:25:39;99921.81;;;12.78;78.02
68301;BME280;55146;47.468;18.806;2023-04-22T06:28:05;99920.84;;;13.16;75.73
68301;BME280;55146;47.468;18.806;2023-04-22T06:30:30;99925.75;;;13.62;74.03
68301;BME280;55146;47.468;18.806;2023-04-22T06:32:55;99928.22;;;14.01;73.61
68301;BME280;55146;47.468;18.806;2023-04-22T06:35:21;99925.66;;;14.37;72.20
68301;BME280;55146;47.468;18.806;2023-04-22T06:37:47;99924.31;;;14.67;68.47
68301;BME280;55146;47.468;18.806;2023-04-22T06:40:13;99918.47;;;14.95;66.02
68301;BME280;55146;47.468;18.806;2023-04-22T06:42:39;99921.75;;;15.25;64.30
68301;BME280;55146;47.468;18.806;2023-04-22T06:45:05;99923.78;;;15.47;63.20
68301;BME280;55146;47.468;18.806;2023-04-22T06:47:31;99926.00;;;15.72;62.61
68301;BME280;55146;47.468;18.806;2023-04-22T06:49:56;99924.28;;;15.98;61.90
68301;BME280;55146;47.468;18.806;2023-04-22T06:52:21;99925.84;;;16.35;61.70
68301;BME280;55146;47.468;18.806;2023-04-22T06:54:47;99926.22;;;16.65;59.21
68301;BME280;55146;47.468;18.806;2023-04-22T06:57:12;99915.34;;;16.85;58.99
68301;BME280;55146;47.468;18.806;2023-04-22T06:59:37;99918.91;;;17.17;59.79
68301;BME280;55146;47.468;18.806;2023-04-22T07:02:03;99927.31;;;17.43;56.40
68301;BME280;55146;47.468;18.806;2023-04-22T07:04:29;99918.41;;;17.80;53.97
68301;BME280;55146;47.468;18.806;2023-04-22T07:06:56;99913.97;;;17.96;54.45
68301;BME280;55146;47.468;18.806;2023-04-22T07:09:21;99926.09;;;18.17;56.10
68301;BME280;55146;47.468;18.806;2023-04-22T07:11:46;99923.59;;;18.50;55.78
68301;BME280;55146;47.468;18.806;2023-04-22T07:14:12;99920.72;;;18.76;54.62
68301;BME280;55146;47.468;18.806;2023-04-22T07:16:37;99922.75;;;19.05;53.65
68301;BME280;55146;47.468;18.806;2023-04-22T07:19:03;99915.56;;;19.33;51.30
68301;BME280;55146;47.468;18.806;2023-04-22T07:21:30;99912.56;;;19.47;51.06
68301;BME280;55146;47.468;18.806;2023-04-22T07:23:57;99908.63;;;19.69;48.55
68301;BME280;55146;47.468;18.806;2023-04-22T07:26:22;99914.16;;;19.98;45.21
68301;BME280;55146;47.468;18.806;2023-04-22T07:28:47;99912.28;;;20.23;48.21
68301;BME280;55146;47.468;18.806;2023-04-22T07:31:13;99907.47;;;20.44;46.05
68301;BME280;55146;47.468;18.806;2023-04-22T07:33:38;99902.50;;;20.62;42.66
68301;BME280;55146;47.468;18.806;2023-04-22T07:36:04;99909.34;;;20.85;37.44
68301;BME280;55146;47.468;18.806;2023-04-22T07:38:29;99914.47;;;21.08;39.60
68301;BME280;55146;47.468;18.806;2023-04-22T07:40:55;99907.28;;;21.19;38.70
68301;BME280;55146;47.468;18.806;2023-04-22T07:43:20;99906.44;;;21.43;34.75
68301;BME280;55146;47.468;18.806;2023-04-22T07:45:45;99903.28;;;21.44;32.75
68301;BME280;55146;47.468;18.806;2023-04-22T07:48:11;99899.59;;;21.40;31.29
68301;BME280;55146;47.468;18.806;2023-04-22T07:50:36;99903.63;;;21.06;28.93
68301;BME280;55146;47.468;18.806;2023-04-22T07:53:01;99908.16;;;20.98;30.31
68301;BME280;55146;47.468;18.806;2023-04-22T07:55:27;99907.47;;;21.14;30.01
68301;BME280;55146;47.468;18.806;2023-04-22T07:57:52;99906.47;;;21.18;31.80
68301;BME280;55146;47.468;18.806;2023-04-22T08:00:17;99901.66;;;21.43;30.05
68301;BME280;55146;47.468;18.806;2023-04-22T08:02:43;99912.75;;;21.39;28.71
68301;BME280;55146;47.468;18.806;2023-04-22T08:05:08;99908.41;;;21.42;30.47
68301;BME280;55146;47.468;18.806;2023-04-22T08:07:34;99908.91;;;21.44;28.73
68301;BME280;55146;47.468;18.806;2023-04-22T08:10:00;99906.84;;;21.17;30.12
68301;BME280;55146;47.468;18.806;2023-04-22T08:12:25;99907.50;;;21.50;29.36
68301;BME280;55146;47.468;18.806;2023-04-22T08:14:51;99915.78;;;21.59;29.59
68301;BME280;55146;47.468;18.806;2023-04-22T08:17:16;99912.81;;;21.67;28.32
68301;BME280;55146;47.468;18.806;2023-04-22T08:19:45;99912.84;;;21.55;29.65
68301;BME280;55146;47.468;18.806;2023-04-22T08:22:11;99913.22;;;21.94;28.88
68301;BME280;55146;47.468;18.806;2023-04-22T08:24:37;99913.91;;;22.15;29.65
68301;BME280;55146;47.468;18.806;2023-04-22T08:27:03;99913.38;;;22.25;27.35
68301;BME280;55146;47.468;18.806;2023-04-22T08:29:29;99909.19;;;22.19;28.66
68301;BME280;55146;47.468;18.806;2023-04-22T08:31:54;99911.53;;;22.45;29.92
68301;BME280;55146;47.468;18.806;2023-04-22T08:34:19;99907.78;;;22.69;26.88
68301;BME280;55146;47.468;18.806;2023-04-22T08:36:45;99916.16;;;22.53;28.04
68301;BME280;55146;47.468;18.806;2023-04-22T08:39:11;99913.84;;;22.71;28.62
68301;BME280;55146;47.468;18.806;2023-04-22T08:41:37;99912.16;;;22.97;28.02
68301;BME280;55146;47.468;18.806;2023-04-22T08:44:04;99909.81;;;22.99;28.72
68301;BME280;55146;47.468;18.806;2023-04-22T08:46:29;99906.75;;;23.05;28.68
68301;BME280;55146;47.468;18.806;2023-04-22T08:48:55;99915.06;;;23.17;30.16
68301;BME280;55146;47.468;18.806;2023-04-22T08:51:27;99908.00;;;23.23;27.19
68301;BME280;55146;47.468;18.806;2023-04-22T08:53:52;99904.09;;;23.43;28.13
68301;BME280;55146;47.468;18.806;2023-04-22T08:56:18;99908.13;;;23.46;26.67
68301;BME280;55146;47.468;18.806;2023-04-22T08:58:44;99909.97;;;23.38;28.93
68301;BME280;55146;47.468;18.806;2023-04-22T09:01:10;99903.25;;;23.58;27.57
68301;BME280;55146;47.468;18.806;2023-04-22T09:03:38;99906.84;;;23.74;29.28
68301;BME280;55146;47.468;18.806;2023-04-22T09:06:05;99899.94;;;24.07;28.08
68301;BME280;55146;47.468;18.806;2023-04-22T09:08:32;99907.38;;;23.99;26.98
68301;BME280;55146;47.468;18.806;2023-04-22T09:10:58;99907.94;;;23.70;26.61
68301;BME280;55146;47.468;18.806;2023-04-22T09:13:25;99909.94;;;23.69;27.83
68301;BME280;55146;47.468;18.806;2023-04-22T09:15:50;99910.59;;;23.63;27.37
68301;BME280;55146;47.468;18.806;2023-04-22T09:18:16;99906.50;;;23.76;29.12
68301;BME280;55146;47.468;18.806;2023-04-22T09:20:43;99917.72;;;23.95;28.12
68301;BME280;55146;47.468;18.806;2023-04-22T09:23:11;99903.16;;;24.09;27.38
68301;BME280;55146;47.468;18.806;2023-04-22T09:25:37;99897.03;;;24.03;28.95
68301;BME280;55146;47.468;18.806;2023-04-22T09:28:02;99907.59;;;24.10;27.23
68301;BME280;55146;47.468;18.806;2023-04-22T09:30:29;99908.94;;;23.97;27.21
68301;BME280;55146;47.468;18.806;2023-04-22T09:32:57;99902.25;;;23.66;28.67
68301;BME280;55146;47.468;18.806;2023-04-22T09:35:38;99892.50;;;23.79;27.63
68301;BME280;55146;47.468;18.806;2023-04-22T09:38:05;99898.28;;;23.87;28.46
68301;BME280;55146;47.468;18.806;2023-04-22T09:40:35;99895.19;;;23.92;25.91
68301;BME280;55146;47.468;18.806;2023-04-22T09:43:03;99901.13;;;23.71;28.07
68301;BME280;55146;47.468;18.806;2023-04-22T09:48:00;99889.91;;;23.71;28.10
68301;BME280;55146;47.468;18.806;2023-04-22T09:50:26;99886.59;;;24.04;30.67
68301;BME280;55146;47.468;18.806;2023-04-22T09:53:00;99891.78;;;24.40;31.00
68301;BME280;55146;47.468;18.806;2023-04-22T09:55:27;99884.53;;;24.39;26.40
68301;BME280;55146;47.468;18.806;2023-04-22T09:57:54;99881.63;;;24.55;28.47
68301;BME280;55146;47.468;18.806;2023-04-22T10:00:27;99883.12;;;24.72;26.98
68301;BME280;55146;47.468;18.806;2023-04-22T10:02:53;99868.50;;;24.85;30.42
68301;BME280;55146;47.468;18.806;2023-04-22T10:05:18;99876.34;;;24.95;26.58
68301;BME280;55146;47.468;18.806;2023-04-22T10:07:45;99868.25;;;24.71;28.26
68301;BME280;55146;47.468;18.806;2023-04-22T10:10:10;99867.06;;;24.72;26.34
68301;BME280;55146;47.468;18.806;2023-04-22T10:12:36;99869.75;;;24.88;26.66
68301;BME280;55146;47.468;18.806;2023-04-22T10:15:03;99867.09;;;24.95;28.13
68301;BME280;55146;47.468;18.806;2023-04-22T10:17:33;99859.84;;;25.20;29.14
68301;BME280;55146;47.468;18.806;2023-04-22T10:20:02;99863.00;;;25.15;27.69
68301;BME280;55146;47.468;18.806;2023-04-22T10:22:33;99858.56;;;25.14;27.08
68301;BME280;55146;47.468;18.806;2023-04-22T10:24:59;99860.84;;;25.05;26.83
68301;BME280;55146;47.468;18.806;2023-04-22T10:27:25;99854.63;;;24.73;27.12
68301;BME280;55146;47.468;18.806;2023-04-22T10:29:51;99856.25;;;24.74;27.97
68301;BME280;55146;47.468;18.806;2023-04-22T10:34:45;99857.63;;;25.07;27.52
68301;BME280;55146;47.468;18.806;2023-04-22T10:37:12;99851.41;;;25.20;26.34
68301;BME280;55146;47.468;18.806;2023-04-22T10:39:40;99850.16;;;25.44;26.42
68301;BME280;55146;47.468;18.806;2023-04-22T10:42:11;99855.34;;;25.68;28.55
68301;BME280;55146;47.468;18.806;2023-04-22T10:44:50;99851.34;;;25.99;29.55
68301;BME280;55146;47.468;18.806;2023-04-22T10:47:36;99849.41;;;26.07;24.96
68301;BME280;55146;47.468;18.806;2023-04-22T10:50:22;99844.97;;;26.06;24.92
68301;BME280;55146;47.468;18.806;2023-04-22T10:52:53;99846.47;;;25.96;24.77
68301;BME280;55146;47.468;18.806;2023-04-22T10:55:19;99847.69;;;25.65;27.47
68301;BME280;55146;47.468;18.806;2023-04-22T10:57:46;99832.66;;;24.82;25.16
68301;BME280;55146;47.468;18.806;2023-04-22T11:03:14;99840.00;;;24.03;28.05
68301;BME280;55146;47.468;18.806;2023-04-22T11:05:39;99843.69;;;24.26;29.15
68301;BME280;55146;47.468;18.806;2023-04-22T11:08:07;99833.78;;;24.78;30.24
68301;BME280;55146;47.468;18.806;2023-04-22T11:10:38;99838.50;;;25.19;29.05
68301;BME280;55146;47.468;18.806;2023-04-22T11:13:08;99827.34;;;25.53;25.54
68301;BME280;55146;47.468;18.806;2023-04-22T11:15:35;99827.00;;;25.84;28.84
68301;BME280;55146;47.468;18.806;2023-04-22T11:18:02;99829.78;;;26.17;29.17
68301;BME280;55146;47.468;18.806;2023-04-22T11:20:28;99829.25;;;26.38;26.04
68301;BME280;55146;47.468;18.806;2023-04-22T11:22:56;99826.00;;;26.36;27.53
68301;BME280;55146;47.468;18.806;2023-04-22T11:25:22;99825.97;;;26.33;25.92
68301;BME280;55146;47.468;18.806;2023-04-22T11:27:48;99813.91;;;26.36;26.85
68301;BME280;55146;47.468;18.806;2023-04-22T11:30:21;99824.06;;;26.44;27.85
68301;BME280;55146;47.468;18.806;2023-04-22T11:32:47;99827.22;;;26.35;25.28
68301;BME280;55146;47.468;18.806;2023-04-22T11:35:17;99826.00;;;26.36;24.62
68301;BME280;55146;47.468;18.806;2023-04-22T11:37:48;99820.50;;;26.13;26.20
68301;BME280;55146;47.468;18.806;2023-04-22T11:40:19;99818.53;;;25.84;24.98
68301;BME280;55146;47.468;18.806;2023-04-22T11:42:46;99821.50;;;25.65;24.35
68301;BME280;55146;47.468;18.806;2023-04-22T11:45:11;99816.53;;;25.55;23.78
68301;BME280;55146;47.468;18.806;2023-04-22T11:47:38;99820.31;;;25.39;23.98
68301;BME280;55146;47.468;18.806;2023-04-22T11:50:07;99814.44;;;25.22;24.44
68301;BME280;55146;47.468;18.806;2023-04-22T11:52:47;99816.44;;;25.21;25.34
68301;BME280;55146;47.468;18.806;2023-04-22T11:55:15;99805.53;;;25.20;24.71
68301;BME280;55146;47.468;18.806;2023-04-22T11:57:43;99817.84;;;25.34;23.88
68301;BME280;55146;47.468;18.806;2023-04-22T12:00:13;99807.72;;;25.30;24.55
68301;BME280;55146;47.468;18.806;2023-04-22T12:02:42;99812.75;;;24.91;23.19
68301;BME280;55146;47.468;18.806;2023-04-22T12:05:18;99809.25;;;24.75;25.42
68301;BME280;55146;47.468;18.806;2023-04-22T12:07:44;99805.94;;;24.92;25.16
68301;BME280;55146;47.468;18.806;2023-04-22T12:10:09;99804.91;;;25.04;24.44
68301;BME280;55146;47.468;18.806;2023-04-22T12:12:38;99807.12;;;24.68;23.65
68301;BME280;55146;47.468;18.806;2023-04-22T12:15:08;99806.72;;;24.47;24.31
68301;BME280;55146;47.468;18.806;2023-04-22T12:17:34;99810.13;;;24.56;24.86
68301;BME280;55146;47.468;18.806;2023-04-22T12:19:59;99800.75;;;24.48;25.64
68301;BME280;55146;47.468;18.806;2023-04-22T12:22:26;99803.78;;;24.40;25.71
68301;BME280;55146;47.468;18.806;2023-04-22T12:24:52;99798.34;;;24.28;26.22
68301;BME280;55146;47.468;18.806;2023-04-22T12:27:18;99800.19;;;24.20;26.85
68301;BME280;55146;47.468;18.806;2023-04-22T12:29:51;99802.00;;;23.90;27.83
68301;BME280;55146;47.468;18.806;2023-04-22T12:32:21;99798.09;;;23.56;27.34
68301;BME280;55146;47.468;18.806;2023-04-22T12:34:47;99792.88;;;23.38;28.58
68301;BME280;55146;47.468;18.806;2023-04-22T12:37:12;99797.66;;;23.38;29.75
68301;BME280;55146;47.468;18.806;2023-04-22T12:39:38;99793.28;;;23.40;29.10
68301;BME280;55146;47.468;18.806;2023-04-22T12:42:05;99797.13;;;23.48;28.41
68301;BME280;55146;47.468;18.806;2023-04-22T12:44:31;99798.75;;;23.68;27.00
68301;BME280;55146;47.468;18.806;2023-04-22T12:46:57;99789.81;;;23.63;26.74
68301;BME280;55146;47.468;18.806;2023-04-22T12:49:22;99793.00;;;23.81;27.94
68301;BME280;55146;47.468;18.806;2023-04-22T12:51:48;99797.03;;;24.02;26.50
68301;BME280;55146;47.468;18.806;2023-04-22T12:54:13;99788.00;;;24.12;27.08
68301;BME280;55146;47.468;18.806;2023-04-22T12:56:39;99788.88;;;24.16;27.60